Time;durP1;ratioP1;P1;durP2;ratioP2;P2;SDS_P1;SDS_P2;PMS_P1;PMS_P2;Temp;Humidity;BMP_temperature;BMP_pressure;BME280_temperature;BME280_humidity;BME280_pressure;Samples;Min_cycle;Max_cycle;Signal;HPM_P1;HPM_P2
2023/01/13 00:00:58;;;;;;;19.73;3.63;;;8.90;99.90;;;;;;5005621;28;20127;-46
2023/01/13 00:03:24;;;;;;;19.80;3.10;;;8.80;99.90;;;;;;5010274;28;20075;-43
2023/01/13 00:05:50;;;;;;;20.80;3.83;;;8.80;99.90;;;;;;5013989;28;20116;-45
2023/01/13 00:08:16;;;;;;;26.13;3.58;;;8.80;99.90;;;;;;5008738;28;20046;-44
2023/01/13 00:10:47;;;;;;;16.30;2.85;;;8.80;99.90;;;;;;5010007;28;20057;-44
2023/01/13 00:13:13;;;;;;;15.77;2.20;;;8.70;99.90;;;;;;5010077;28;20034;-43
2023/01/13 00:15:38;;;;;;;15.18;2.35;;;8.60;99.90;;;;;;5007873;28;20491;-43
2023/01/13 00:18:04;;;;;;;16.08;2.13;;;8.60;99.90;;;;;;5008452;28;20127;-38
2023/01/13 00:20:30;;;;;;;22.90;3.78;;;8.50;99.90;;;;;;5004915;28;20668;-43
2023/01/13 00:22:57;;;;;;;21.00;2.65;;;8.50;99.90;;;;;;5009640;28;20041;-46
2023/01/13 00:25:23;;;;;;;12.65;3.10;;;8.40;99.90;;;;;;5010307;28;20060;-45
2023/01/13 00:27:48;;;;;;;20.70;2.50;;;8.40;99.90;;;;;;5009800;28;20037;-44
2023/01/13 00:30:14;;;;;;;9.82;1.92;;;8.30;99.90;;;;;;5006906;28;20270;-46
2023/01/13 00:32:40;;;;;;;16.13;3.60;;;8.30;99.90;;;;;;5008114;28;20041;-47
2023/01/13 00:35:06;;;;;;;21.00;2.22;;;8.30;99.90;;;;;;4989867;28;20124;-43
2023/01/13 00:37:36;;;;;;;15.10;1.95;;;8.30;99.90;;;;;;5007735;28;20582;-44
2023/01/13 00:40:01;;;;;;;18.95;3.58;;;8.30;99.90;;;;;;5006362;28;20041;-46
2023/01/13 00:45:11;;;;;;;16.48;2.08;;;8.30;99.90;;;;;;5004202;28;20045;-44
2023/01/13 00:47:37;;;;;;;17.23;2.38;;;8.30;99.90;;;;;;5008704;28;20056;-41
2023/01/13 00:50:03;;;;;;;13.75;1.90;;;8.30;99.90;;;;;;5006249;28;20046;-42
2023/01/13 00:52:31;;;;;;;17.38;2.35;;;8.30;99.90;;;;;;5005659;28;20092;-43
2023/01/13 00:54:57;;;;;;;11.95;1.48;;;8.20;99.90;;;;;;5004010;28;20042;-43
2023/01/13 00:57:23;;;;;;;13.40;2.35;;;8.20;99.90;;;;;;5006495;28;20038;-44
2023/01/13 00:59:48;;;;;;;18.60;3.08;;;8.30;99.90;;;;;;5008815;28;20075;-44
2023/01/13 01:02:14;;;;;;;13.55;2.42;;;8.30;99.90;;;;;;5003647;28;20531;-44
2023/01/13 01:04:40;;;;;;;16.02;2.90;;;8.30;99.90;;;;;;5003485;28;20415;-45
2023/01/13 01:07:06;;;;;;;8.95;1.55;;;8.30;99.90;;;;;;5007985;28;20142;-42
2023/01/13 01:09:33;;;;;;;15.40;2.63;;;8.30;99.90;;;;;;5007218;28;20041;-45
2023/01/13 01:12:00;;;;;;;15.30;2.30;;;8.40;99.90;;;;;;5008280;28;20105;-46
2023/01/13 01:14:29;;;;;;;15.00;2.72;;;8.40;99.90;;;;;;5006641;28;20506;-43
2023/01/13 01:16:54;;;;;;;34.72;6.45;;;8.40;99.90;;;;;;5002539;28;20038;-48
2023/01/13 01:19:20;;;;;;;20.10;2.95;;;8.40;99.90;;;;;;5006393;28;20041;-43
2023/01/13 01:21:46;;;;;;;17.67;2.72;;;8.30;99.90;;;;;;5007760;28;20037;-41
2023/01/13 01:24:11;;;;;;;19.80;3.45;;;8.30;99.90;;;;;;5006230;28;20038;-41
2023/01/13 01:26:37;;;;;;;20.70;2.08;;;8.30;99.90;;;;;;5008587;28;20095;-41
2023/01/13 01:29:03;;;;;;;17.95;1.58;;;8.40;99.90;;;;;;4989720;28;20103;-42
2023/01/13 01:31:31;;;;;;;19.05;2.28;;;8.30;99.90;;;;;;5006808;28;20072;-46
2023/01/13 01:33:57;;;;;;;11.32;1.50;;;8.30;99.90;;;;;;4999985;28;20183;-43
2023/01/13 01:36:28;;;;;;;13.38;2.05;;;8.30;99.90;;;;;;5003360;28;20052;-45
2023/01/13 01:38:56;;;;;;;12.57;2.25;;;8.30;99.90;;;;;;5006026;28;20418;-45
2023/01/13 01:41:26;;;;;;;15.02;2.03;;;8.30;99.90;;;;;;5006757;28;20057;-45
2023/01/13 01:44:11;;;;;;;13.80;2.83;;;8.30;99.90;;;;;;5004709;28;20049;-47
2023/01/13 01:46:42;;;;;;;26.63;4.07;;;8.30;99.90;;;;;;5004708;28;20045;-42
2023/01/13 01:49:11;;;;;;;18.42;3.35;;;8.30;99.90;;;;;;5006565;28;20048;-44
2023/01/13 01:51:48;;;;;;;18.33;2.35;;;8.20;99.90;;;;;;5005539;28;20060;-43
2023/01/13 01:54:55;;;;;;;17.80;2.47;;;8.20;99.90;;;;;;5004853;28;20054;-39
2023/01/13 01:57:31;;;;;;;17.10;2.42;;;8.10;99.90;;;;;;4997656;28;20081;-45
2023/01/13 01:59:59;;;;;;;17.02;2.45;;;8.10;99.90;;;;;;5003048;28;20073;-39
2023/01/13 02:02:27;;;;;;;12.68;2.25;;;8.10;99.90;;;;;;5002522;28;20046;-46
2023/01/13 02:04:54;;;;;;;14.25;2.40;;;8.00;99.90;;;;;;5004657;28;20042;-43
2023/01/13 02:07:24;;;;;;;20.25;2.28;;;8.00;99.90;;;;;;5006691;28;20499;-46
2023/01/13 02:09:51;;;;;;;15.95;2.22;;;8.00;99.90;;;;;;5006247;28;20034;-44
2023/01/13 02:12:29;;;;;;;15.25;2.22;;;8.00;99.90;;;;;;5003474;28;20399;-42
2023/01/13 02:15:06;;;;;;;14.02;2.65;;;7.90;99.90;;;;;;5004260;28;20045;-42
2023/01/13 02:18:00;;;;;;;10.60;2.17;;;7.90;99.90;;;;;;5004420;28;20117;-42
2023/01/13 02:20:44;;;;;;;12.60;1.70;;;7.80;99.90;;;;;;5002811;28;20462;-41
2023/01/13 02:26:19;;;;;;;18.10;1.88;;;7.70;99.90;;;;;;4997159;28;20471;-47
2023/01/13 02:31:40;;;;;;;17.92;2.30;;;7.70;99.90;;;;;;5002004;28;20038;-44
2023/01/13 02:31:42;;;;;;;17.50;2.30;;;7.60;99.90;;;;;;5008698;28;20108;-41
2023/01/13 02:34:15;;;;;;;17.73;1.92;;;7.60;99.90;;;;;;5007442;28;20038;-44
2023/01/13 02:37:04;;;;;;;14.38;2.45;;;7.60;99.90;;;;;;5009787;28;20116;-44
2023/01/13 02:39:40;;;;;;;15.88;2.25;;;7.60;99.90;;;;;;5009708;28;20112;-43
2023/01/13 02:45:24;;;;;;;12.05;2.42;;;7.60;99.90;;;;;;5008797;28;20057;-45
2023/01/13 02:47:54;;;;;;;17.25;3.95;;;7.60;99.90;;;;;;5010566;28;20044;-44
2023/01/13 02:50:28;;;;;;;21.80;2.25;;;7.70;99.90;;;;;;5010342;28;20029;-44
2023/01/13 02:53:10;;;;;;;19.98;2.80;;;7.80;99.90;;;;;;5006888;28;20310;-43
2023/01/13 02:55:45;;;;;;;17.75;3.17;;;7.80;99.90;;;;;;5010548;28;20041;-44
2023/01/13 02:58:15;;;;;;;15.85;2.97;;;7.90;99.90;;;;;;5008366;28;20038;-45
2023/01/13 03:00:42;;;;;;;18.67;2.58;;;7.90;99.90;;;;;;5008839;28;20467;-45
2023/01/13 03:03:08;;;;;;;17.50;2.20;;;8.00;99.90;;;;;;5003874;28;20041;-41
2023/01/13 03:05:35;;;;;;;12.25;2.28;;;8.00;99.90;;;;;;5009073;28;20052;-41
2023/01/13 03:08:03;;;;;;;22.98;2.30;;;8.00;99.90;;;;;;5010386;28;20339;-46
2023/01/13 03:10:54;;;;;;;23.88;2.55;;;8.00;99.90;;;;;;5008963;28;20848;-44
2023/01/13 03:13:28;;;;;;;19.55;2.80;;;8.00;99.90;;;;;;5007793;28;20037;-44
2023/01/13 03:16:28;;;;;;;18.48;2.20;;;8.10;99.90;;;;;;5005601;28;20106;-39
2023/01/13 03:19:23;;;;;;;14.80;2.45;;;8.10;99.90;;;;;;5007272;28;20096;-43
2023/01/13 03:21:55;;;;;;;10.73;2.25;;;8.10;99.90;;;;;;5007631;28;20395;-47
2023/01/13 03:24:35;;;;;;;25.67;3.95;;;8.10;99.90;;;;;;4992388;28;20041;-43
2023/01/13 03:27:03;;;;;;;19.52;3.17;;;8.10;99.90;;;;;;5007039;28;20104;-48
2023/01/13 03:29:40;;;;;;;14.35;2.72;;;8.10;99.90;;;;;;5006683;28;20447;-42
2023/01/13 03:32:31;;;;;;;15.85;2.47;;;8.20;99.90;;;;;;4994452;28;20044;-43
2023/01/13 03:35:10;;;;;;;22.35;3.38;;;8.20;99.90;;;;;;5003300;28;20414;-44
2023/01/13 03:37:44;;;;;;;21.77;2.42;;;8.10;99.90;;;;;;5009283;28;20150;-45
2023/01/13 03:40:16;;;;;;;12.65;2.50;;;8.20;99.90;;;;;;5009514;28;20037;-46
2023/01/13 03:44:20;;;;;;;18.93;2.77;;;8.20;99.90;;;;;;5006410;28;20056;-43
2023/01/13 03:45:33;;;;;;;15.32;2.38;;;8.20;99.90;;;;;;5009175;28;20111;-44
2023/01/13 03:48:04;;;;;;;22.77;2.85;;;8.20;99.90;;;;;;5011113;28;20056;-43
2023/01/13 03:50:47;;;;;;;23.77;2.88;;;8.20;99.90;;;;;;5008429;28;20487;-44
2023/01/13 03:53:25;;;;;;;16.70;2.72;;;8.20;99.90;;;;;;5007756;28;20038;-42
2023/01/13 03:55:57;;;;;;;21.13;2.58;;;8.20;99.90;;;;;;5006520;28;20034;-43
2023/01/13 03:58:29;;;;;;;23.38;3.55;;;8.30;99.90;;;;;;5013353;28;20044;-43
2023/01/13 04:01:07;;;;;;;22.70;2.45;;;8.30;99.90;;;;;;5008465;28;20495;-43
2023/01/13 04:04:04;;;;;;;16.60;3.28;;;8.30;99.90;;;;;;5004875;28;20049;-42
2023/01/13 04:07:22;;;;;;;18.98;3.03;;;8.30;99.90;;;;;;5005623;28;20054;-42
2023/01/13 04:09:51;;;;;;;15.45;2.40;;;8.30;99.90;;;;;;5005716;28;20058;-41
2023/01/13 04:12:59;;;;;;;17.63;1.98;;;8.30;99.90;;;;;;5010128;28;20049;-41
2023/01/13 04:15:17;;;;;;;23.75;3.42;;;8.20;99.90;;;;;;5007584;28;20046;-45
2023/01/13 04:17:43;;;;;;;18.95;4.43;;;8.20;99.90;;;;;;5007877;28;20073;-43
2023/01/13 04:20:09;;;;;;;18.00;2.65;;;8.10;99.90;;;;;;5004658;28;20088;-43
2023/01/13 04:22:35;;;;;;;19.38;2.58;;;8.20;99.90;;;;;;5009480;28;20095;-47
2023/01/13 04:25:01;;;;;;;18.17;2.92;;;8.20;99.90;;;;;;5009837;28;20049;-43
2023/01/13 04:27:26;;;;;;;20.27;3.25;;;8.20;99.90;;;;;;5005372;28;20522;-45
2023/01/13 04:29:52;;;;;;;15.45;2.35;;;8.20;99.90;;;;;;5011999;28;20111;-43
2023/01/13 04:32:18;;;;;;;14.80;3.03;;;8.20;99.90;;;;;;5003129;28;20040;-40
2023/01/13 04:34:43;;;;;;;15.15;2.35;;;8.20;99.90;;;;;;5001332;28;20054;-45
2023/01/13 04:37:10;;;;;;;21.17;2.53;;;8.10;99.90;;;;;;5007806;28;20046;-45
2023/01/13 04:39:36;;;;;;;17.55;2.50;;;8.00;99.90;;;;;;5005898;28;20368;-44
2023/01/13 04:42:01;;;;;;;17.00;2.55;;;8.10;99.90;;;;;;5006709;28;20037;-43
2023/01/13 04:44:29;;;;;;;24.83;2.63;;;8.00;99.90;;;;;;5010643;28;20042;-44
2023/01/13 04:46:55;;;;;;;22.35;2.83;;;8.00;99.90;;;;;;5005928;28;20065;-46
2023/01/13 04:49:20;;;;;;;18.15;2.97;;;7.90;99.90;;;;;;5004033;28;20124;-45
2023/01/13 04:51:46;;;;;;;18.70;2.55;;;7.90;99.90;;;;;;4988072;28;20482;-44
2023/01/13 04:54:12;;;;;;;20.17;3.15;;;7.90;99.90;;;;;;5005839;28;20038;-44
2023/01/13 04:56:38;;;;;;;16.80;2.65;;;7.90;99.90;;;;;;5005716;28;20105;-44
2023/01/13 04:59:03;;;;;;;15.15;2.22;;;7.90;99.90;;;;;;5006387;28;20046;-40
2023/01/13 05:01:29;;;;;;;20.42;2.67;;;7.90;99.90;;;;;;5004651;28;20044;-44
2023/01/13 05:03:55;;;;;;;18.15;2.15;;;7.80;99.90;;;;;;4984280;28;20044;-42
2023/01/13 05:06:20;;;;;;;17.52;2.53;;;7.80;99.90;;;;;;5002816;28;20423;-40
2023/01/13 05:08:46;;;;;;;18.20;1.95;;;7.80;99.90;;;;;;5009156;28;20425;-44
2023/01/13 05:16:59;;;;;;;11.88;2.38;;;7.70;99.90;;;;;;5005680;28;20057;-44
2023/01/13 05:19:26;;;;;;;16.08;2.40;;;7.70;99.90;;;;;;5004055;28;20041;-42
2023/01/13 05:27:20;;;;;;;13.23;1.85;;;7.80;99.90;;;;;;5008019;28;20054;-43
2023/01/13 05:29:45;;;;;;;14.88;1.70;;;7.80;99.90;;;;;;5001950;28;20041;-46
2023/01/13 05:32:11;;;;;;;14.68;2.33;;;7.80;99.90;;;;;;5005813;28;20514;-46
2023/01/13 05:34:37;;;;;;;12.95;3.35;;;7.80;99.90;;;;;;5006234;28;20147;-43
2023/01/13 05:37:04;;;;;;;16.30;1.63;;;7.70;99.90;;;;;;5003613;28;20072;-41
2023/01/13 05:43:18;;;;;;;11.25;1.35;;;7.80;99.90;;;;;;5006021;28;20453;-47
2023/01/13 05:45:00;;;;;;;15.63;1.83;;;7.80;99.90;;;;;;5008815;28;20132;-43
2023/01/13 05:47:25;;;;;;;14.45;1.58;;;7.80;99.90;;;;;;5007947;28;20137;-41
2023/01/13 05:49:51;;;;;;;10.90;1.50;;;7.70;99.90;;;;;;5004964;28;20034;-44
2023/01/13 05:52:16;;;;;;;11.25;1.45;;;7.70;99.90;;;;;;5003351;28;20038;-42
2023/01/13 05:54:42;;;;;;;8.05;1.30;;;7.70;99.90;;;;;;5006989;28;20197;-41
2023/01/13 05:57:08;;;;;;;12.57;1.33;;;7.70;99.90;;;;;;5002063;28;20140;-44
2023/01/13 05:59:33;;;;;;;7.65;1.20;;;7.70;99.90;;;;;;5005066;28;20506;-40
2023/01/13 06:01:59;;;;;;;13.93;1.77;;;7.80;99.90;;;;;;5010040;28;20060;-40
2023/01/13 06:04:25;;;;;;;9.18;1.48;;;7.80;99.90;;;;;;4990096;28;20041;-45
2023/01/13 06:06:50;;;;;;;12.77;2.28;;;7.80;99.90;;;;;;5009063;28;20034;-43
2023/01/13 06:09:16;;;;;;;8.60;1.23;;;7.80;99.90;;;;;;5012424;28;20433;-40
2023/01/13 06:11:42;;;;;;;5.47;1.10;;;7.90;99.90;;;;;;5009877;28;20068;-43
2023/01/13 06:14:07;;;;;;;7.97;0.88;;;7.90;99.90;;;;;;5005356;28;20053;-42
2023/01/13 06:16:33;;;;;;;8.55;1.10;;;7.90;99.90;;;;;;5007711;28;20359;-43
2023/01/13 06:19:01;;;;;;;7.05;1.27;;;7.90;99.90;;;;;;5005249;28;20555;-44
2023/01/13 06:21:27;;;;;;;6.55;0.82;;;8.00;99.90;;;;;;5006997;28;20041;-40
2023/01/13 06:23:53;;;;;;;6.82;1.17;;;8.00;99.90;;;;;;5010352;28;20144;-43
2023/01/13 06:26:21;;;;;;;6.40;0.80;;;8.00;99.90;;;;;;5010616;28;20045;-39
2023/01/13 06:28:48;;;;;;;13.30;1.10;;;8.00;99.90;;;;;;5012867;28;20081;-43
2023/01/13 06:31:15;;;;;;;7.45;1.35;;;8.10;99.90;;;;;;5014579;28;20037;-41
2023/01/13 06:33:52;;;;;;;10.10;1.35;;;8.10;99.90;;;;;;5016570;28;20042;-43
2023/01/13 06:36:40;;;;;;;6.80;1.30;;;8.00;99.90;;;;;;4995397;28;20062;-42
2023/01/13 06:39:09;;;;;;;5.13;0.65;;;8.00;99.90;;;;;;4989194;28;20065;-40
2023/01/13 06:44:20;;;;;;;12.60;2.05;;;8.10;99.90;;;;;;4989439;28;20080;-41
2023/01/13 06:46:46;;;;;;;9.85;1.20;;;8.10;99.90;;;;;;4989887;28;20121;-41
2023/01/13 06:49:12;;;;;;;5.40;1.20;;;8.10;99.90;;;;;;4992659;28;20593;-42
2023/01/13 06:51:38;;;;;;;14.07;1.42;;;8.10;99.90;;;;;;4992976;28;20050;-40
2023/01/13 06:54:03;;;;;;;8.10;1.38;;;8.10;99.90;;;;;;4991193;28;20400;-46
2023/01/13 06:56:29;;;;;;;7.55;1.20;;;8.10;99.90;;;;;;4988201;28;20456;-40
2023/01/13 06:58:55;;;;;;;14.30;2.67;;;8.10;99.90;;;;;;4990667;28;20038;-40
2023/01/13 07:01:20;;;;;;;9.02;0.85;;;8.10;99.90;;;;;;4987193;28;20038;-39
2023/01/13 07:03:46;;;;;;;5.55;1.08;;;8.10;99.90;;;;;;4986558;28;20039;-42
2023/01/13 07:06:12;;;;;;;10.90;0.80;;;8.10;99.90;;;;;;4989428;28;20495;-42
2023/01/13 07:08:37;;;;;;;14.90;0.95;;;8.10;99.90;;;;;;4988011;28;20483;-41
2023/01/13 07:11:03;;;;;;;9.57;1.25;;;8.10;99.90;;;;;;4991439;28;20030;-45
2023/01/13 07:16:13;;;;;;;8.13;0.93;;;8.00;99.90;;;;;;4987711;28;20049;-43
2023/01/13 07:18:39;;;;;;;9.63;1.00;;;8.00;99.90;;;;;;4985790;28;20038;-40
2023/01/13 07:21:08;;;;;;;14.75;2.15;;;7.90;99.90;;;;;;4988514;28;20046;-44
2023/01/13 07:23:36;;;;;;;12.93;1.50;;;7.90;99.90;;;;;;4988114;28;20045;-47
2023/01/13 07:26:02;;;;;;;13.18;1.92;;;7.80;99.90;;;;;;4971885;28;20046;-43
2023/01/13 07:28:29;;;;;;;14.35;1.50;;;7.70;99.90;;;;;;4987441;28;20038;-39
2023/01/13 07:30:56;;;;;;;9.55;1.23;;;7.70;99.90;;;;;;4987071;28;20049;-40
2023/01/13 07:33:22;;;;;;;11.73;1.25;;;7.60;99.90;;;;;;4989822;28;20479;-42
2023/01/13 07:35:54;;;;;;;11.10;1.55;;;7.50;99.90;;;;;;5003354;28;20089;-41
2023/01/13 07:38:19;;;;;;;8.15;1.38;;;7.50;99.90;;;;;;4986737;28;20065;-42
2023/01/13 07:40:45;;;;;;;14.77;1.80;;;7.50;99.90;;;;;;5009793;28;20046;-45
2023/01/13 07:45:58;;;;;;;11.95;1.17;;;7.40;99.90;;;;;;5008875;28;20057;-43
2023/01/13 07:48:24;;;;;;;8.80;2.08;;;7.40;99.90;;;;;;5009027;28;20041;-44
2023/01/13 07:50:50;;;;;;;8.80;1.55;;;7.30;99.90;;;;;;5009083;28;20038;-44
2023/01/13 07:53:16;;;;;;;12.00;1.13;;;7.30;99.90;;;;;;5009273;28;20052;-43
2023/01/13 07:55:42;;;;;;;14.07;2.05;;;7.30;99.90;;;;;;5001239;28;20495;-41
2023/01/13 07:58:09;;;;;;;10.90;1.30;;;7.30;99.90;;;;;;5008326;28;20674;-45
2023/01/13 08:00:39;;;;;;;17.88;2.00;;;7.30;99.90;;;;;;5009173;28;20570;-45
2023/01/13 08:03:04;;;;;;;10.82;1.77;;;7.30;99.90;;;;;;5005275;28;20134;-45
2023/01/13 08:05:30;;;;;;;16.90;3.72;;;7.40;99.90;;;;;;5001552;28;20116;-43
2023/01/13 08:07:56;;;;;;;11.90;2.08;;;7.30;99.90;;;;;;5002172;28;20067;-42
2023/01/13 08:10:22;;;;;;;9.98;1.75;;;7.30;99.90;;;;;;5003502;28;20419;-47
2023/01/13 08:15:33;;;;;;;11.18;1.50;;;7.30;99.90;;;;;;5003536;28;20042;-42
2023/01/13 08:17:59;;;;;;;7.65;1.08;;;7.40;99.90;;;;;;5005847;28;20506;-48
2023/01/13 08:20:25;;;;;;;11.70;1.45;;;7.30;99.90;;;;;;5004412;28;20217;-46
2023/01/13 08:23:00;;;;;;;7.43;1.55;;;7.30;99.90;;;;;;5004248;28;20053;-45
2023/01/13 08:25:27;;;;;;;9.75;1.27;;;7.40;99.90;;;;;;5005196;28;20112;-42
2023/01/13 08:27:54;;;;;;;11.05;1.73;;;7.30;99.90;;;;;;5007568;28;20650;-45
2023/01/13 08:30:19;;;;;;;13.05;1.23;;;7.30;99.90;;;;;;5005669;28;20042;-47
2023/01/13 08:32:46;;;;;;;8.88;1.60;;;7.30;99.90;;;;;;5008167;28;20065;-44
2023/01/13 08:35:12;;;;;;;10.65;1.63;;;7.40;99.90;;;;;;5006585;28;20449;-46
2023/01/13 08:37:38;;;;;;;12.90;1.80;;;7.40;99.90;;;;;;5010712;28;20067;-48
2023/01/13 08:40:05;;;;;;;10.07;1.23;;;7.40;99.90;;;;;;5002315;28;20038;-44
2023/01/13 08:42:31;;;;;;;16.42;1.70;;;7.40;99.90;;;;;;5009311;28;20038;-45
2023/01/13 08:44:57;;;;;;;9.80;1.27;;;7.50;99.90;;;;;;5010668;28;20494;-45
2023/01/13 08:47:23;;;;;;;12.00;2.15;;;7.50;99.90;;;;;;5010696;28;20104;-46
2023/01/13 08:49:48;;;;;;;9.27;1.50;;;7.50;99.90;;;;;;5008748;28;20088;-42
2023/01/13 08:52:15;;;;;;;11.35;1.92;;;7.60;99.90;;;;;;5005881;28;20033;-45
2023/01/13 08:54:40;;;;;;;13.75;2.00;;;7.60;99.90;;;;;;4993587;28;20037;-45
2023/01/13 08:57:06;;;;;;;14.00;1.98;;;7.60;99.90;;;;;;5005659;28;20318;-46
2023/01/13 08:59:33;;;;;;;13.10;1.67;;;7.70;99.90;;;;;;5003268;28;20046;-44
2023/01/13 09:01:58;;;;;;;8.23;1.48;;;7.70;99.90;;;;;;5007284;28;20491;-42
2023/01/13 09:04:27;;;;;;;9.45;1.35;;;7.70;99.90;;;;;;5007909;28;20033;-49
2023/01/13 09:06:54;;;;;;;17.17;1.80;;;7.70;99.90;;;;;;5006482;28;20041;-45
2023/01/13 09:09:20;;;;;;;11.82;2.10;;;7.80;99.90;;;;;;5004847;28;20059;-47
2023/01/13 09:14:35;;;;;;;14.88;3.28;;;7.80;99.90;;;;;;5008520;28;20046;-47
2023/01/13 09:17:02;;;;;;;15.95;2.33;;;7.80;99.90;;;;;;5001480;28;20499;-44
2023/01/13 09:19:28;;;;;;;15.60;2.90;;;7.80;99.90;;;;;;5007561;28;20038;-44
2023/01/13 09:21:55;;;;;;;11.77;2.08;;;7.80;99.90;;;;;;5007089;28;20056;-46
2023/01/13 09:24:22;;;;;;;10.75;1.35;;;7.80;99.90;;;;;;5004869;28;20076;-42
2023/01/13 09:26:48;;;;;;;16.38;1.50;;;7.90;99.90;;;;;;5008219;28;20046;-44
2023/01/13 09:29:14;;;;;;;13.15;1.52;;;7.90;99.90;;;;;;5008897;28;20049;-42
2023/01/13 09:31:40;;;;;;;12.38;1.25;;;7.90;99.90;;;;;;5006173;28;20033;-47
2023/01/13 09:36:56;;;;;;;11.98;1.52;;;7.90;99.90;;;;;;4983748;28;20042;-43
2023/01/13 09:39:22;;;;;;;16.45;2.38;;;7.90;99.90;;;;;;4986270;28;20049;-44
2023/01/13 09:44:51;;;;;;;17.00;2.22;;;7.90;99.90;;;;;;4987419;28;20545;-44
2023/01/13 09:47:29;;;;;;;13.95;1.38;;;7.90;99.90;;;;;;4984907;28;20042;-44
2023/01/13 09:50:03;;;;;;;12.68;1.70;;;7.90;99.90;;;;;;4981368;28;20030;-39
2023/01/13 09:52:29;;;;;;;12.40;2.00;;;7.80;99.90;;;;;;4987229;28;20053;-46
2023/01/13 09:55:14;;;;;;;10.75;1.70;;;7.80;99.90;;;;;;4989313;28;20046;-42
2023/01/13 09:57:40;;;;;;;16.85;1.30;;;7.70;99.90;;;;;;4985278;28;20594;-45
2023/01/13 10:00:21;;;;;;;17.38;2.22;;;7.70;99.90;;;;;;4986813;28;20041;-45
2023/01/13 10:03:14;;;;;;;29.23;4.68;;;7.70;99.90;;;;;;4984355;28;20412;-43
2023/01/13 10:06:03;;;;;;;10.18;1.75;;;7.60;99.90;;;;;;4988802;28;20086;-44
2023/01/13 10:08:36;;;;;;;22.17;3.85;;;7.60;99.90;;;;;;4979918;28;20054;-46
2023/01/13 10:13:13;;;;;;;19.23;2.00;;;7.60;99.90;;;;;;4987005;28;20042;-42
2023/01/13 10:14:01;;;;;;;19.25;2.45;;;7.60;99.90;;;;;;4985662;28;21709;-44
2023/01/13 10:16:40;;;;;;;16.50;1.70;;;7.60;99.90;;;;;;4981372;28;20053;-41
2023/01/13 10:19:21;;;;;;;13.20;2.28;;;7.60;99.90;;;;;;4983114;28;20042;-43
2023/01/13 10:22:24;;;;;;;14.02;1.80;;;7.70;99.90;;;;;;4985599;28;20497;-42
2023/01/13 10:24:59;;;;;;;19.73;1.90;;;7.70;99.90;;;;;;4942702;28;20097;-42
2023/01/13 10:27:33;;;;;;;16.08;2.60;;;7.70;99.90;;;;;;4988089;28;20042;-44
2023/01/13 10:30:11;;;;;;;14.18;1.50;;;7.70;99.90;;;;;;4982171;28;20046;-44
2023/01/13 10:32:37;;;;;;;12.48;1.67;;;7.70;99.90;;;;;;4986302;28;20042;-44
2023/01/13 10:35:04;;;;;;;13.65;3.42;;;7.70;99.90;;;;;;4997955;28;20052;-42
2023/01/13 10:37:30;;;;;;;15.52;2.22;;;7.80;99.90;;;;;;5007736;28;20037;-45
2023/01/13 10:40:01;;;;;;;17.02;2.03;;;7.80;99.90;;;;;;5009920;28;20042;-45
2023/01/13 10:42:26;;;;;;;14.65;1.90;;;7.80;99.90;;;;;;5010997;28;20049;-43
2023/01/13 10:44:54;;;;;;;18.70;2.60;;;7.80;99.90;;;;;;5002531;28;20173;-41
2023/01/13 10:47:24;;;;;;;13.63;2.13;;;7.80;99.90;;;;;;5004892;28;20045;-43
2023/01/13 10:50:04;;;;;;;15.02;1.70;;;7.80;99.90;;;;;;5013982;28;20048;-47
2023/01/13 10:52:40;;;;;;;11.80;2.78;;;7.80;99.90;;;;;;5016705;28;20049;-44
2023/01/13 10:55:29;;;;;;;12.98;1.83;;;7.80;99.90;;;;;;5009496;28;20048;-43
2023/01/13 10:57:55;;;;;;;12.02;1.83;;;7.80;99.90;;;;;;5008735;28;20587;-42
2023/01/13 11:00:30;;;;;;;11.65;1.88;;;7.90;99.90;;;;;;5008499;28;20108;-42
2023/01/13 11:03:23;;;;;;;14.45;1.58;;;7.90;99.90;;;;;;5009219;28;20038;-44
2023/01/13 11:05:50;;;;;;;;;;;7.90;99.90;;;;;;5004227;28;20514;-44
2023/01/13 11:08:18;;;;;;;23.40;1.95;;;7.90;99.90;;;;;;5008620;28;19984;-45
2023/01/13 11:10:47;;;;;;;18.08;1.67;;;8.00;99.90;;;;;;5005311;28;20034;-46
2023/01/13 11:13:22;;;;;;;12.73;1.92;;;8.00;99.90;;;;;;5005269;28;20131;-44
2023/01/13 11:15:54;;;;;;;10.80;1.42;;;8.10;99.90;;;;;;5006310;28;20077;-45
2023/01/13 11:18:31;;;;;;;12.13;1.40;;;8.20;99.90;;;;;;5005561;28;20052;-39
2023/01/13 11:20:58;;;;;;;12.50;1.25;;;8.30;99.90;;;;;;5006296;28;20547;-44
2023/01/13 11:23:34;;;;;;;11.27;2.42;;;8.30;99.90;;;;;;4993200;28;20046;-44
2023/01/13 11:26:07;;;;;;;13.10;1.88;;;8.30;99.90;;;;;;5007132;28;20052;-48
2023/01/13 11:28:37;;;;;;;11.98;1.58;;;8.30;99.90;;;;;;5008336;28;20069;-39
2023/01/13 11:31:21;;;;;;;15.63;2.17;;;8.30;99.90;;;;;;4999821;28;20053;-41
2023/01/13 11:34:19;;;;;;;11.13;1.63;;;8.40;99.90;;;;;;4998067;28;20037;-44
2023/01/13 11:36:51;;;;;;;12.20;1.42;;;8.50;99.90;;;;;;4967035;28;20452;-40
2023/01/13 11:39:23;;;;;;;12.15;1.20;;;8.40;99.90;;;;;;5004051;28;20495;-40
2023/01/13 11:42:20;;;;;;;12.27;2.33;;;8.50;99.90;;;;;;5003740;28;20052;-46
2023/01/13 11:45:23;;;;;;;16.13;3.28;;;8.60;99.90;;;;;;5005761;28;20107;-45
2023/01/13 11:47:54;;;;;;;11.38;1.55;;;8.60;99.90;;;;;;5009137;28;20491;-43
2023/01/13 11:50:33;;;;;;;8.02;1.30;;;8.70;99.90;;;;;;5010691;28;20033;-49
2023/01/13 11:53:25;;;;;;;12.15;1.45;;;8.70;99.90;;;;;;5005097;28;20049;-46
2023/01/13 11:56:05;;;;;;;10.20;1.27;;;8.70;99.90;;;;;;5001610;28;20044;-48
2023/01/13 11:58:58;;;;;;;9.95;1.02;;;8.70;99.90;;;;;;4969817;28;20173;-42
2023/01/13 12:01:56;;;;;;;7.75;1.00;;;8.70;99.90;;;;;;5004455;28;20132;-41
2023/01/13 12:04:22;;;;;;;7.95;1.23;;;8.70;99.90;;;;;;5001489;28;20046;-42
2023/01/13 12:06:59;;;;;;;5.70;1.08;;;8.80;99.90;;;;;;5002675;28;20049;-43
2023/01/13 12:09:54;;;;;;;8.73;0.98;;;8.80;99.90;;;;;;5002898;28;20503;-43
2023/01/13 12:12:21;;;;;;;10.43;1.77;;;8.80;99.90;;;;;;5004606;28;20116;-45
2023/01/13 12:15:21;;;;;;;13.52;1.77;;;8.80;99.90;;;;;;4988971;28;20046;-41
2023/01/13 12:18:02;;;;;;;7.75;1.10;;;8.80;99.90;;;;;;5005228;28;20076;-44
2023/01/13 12:20:46;;;;;;;8.63;1.15;;;8.80;99.90;;;;;;5002596;28;20564;-40
2023/01/13 12:23:43;;;;;;;10.13;1.70;;;8.80;99.90;;;;;;5003003;28;20502;-41
2023/01/13 12:26:15;;;;;;;13.70;2.33;;;8.80;99.90;;;;;;5010851;28;20141;-44
2023/01/13 12:28:59;;;;;;;9.68;1.20;;;8.80;99.90;;;;;;5005866;28;20128;-41
2023/01/13 12:31:26;;;;;;;6.45;1.23;;;8.70;99.90;;;;;;5003958;28;20502;-36
2023/01/13 12:34:11;;;;;;;8.73;1.15;;;8.60;99.90;;;;;;5008160;28;20038;-38
2023/01/13 12:36:57;;;;;;;9.50;1.30;;;8.70;99.90;;;;;;5000512;28;20735;-35
2023/01/13 12:39:39;;;;;;;7.28;0.90;;;8.70;99.90;;;;;;5004002;28;20053;-36
2023/01/13 12:45:18;;;;;;;7.45;1.42;;;8.80;99.90;;;;;;5008163;28;20057;-36
2023/01/13 12:47:47;;;;;;;8.52;1.15;;;8.80;99.90;;;;;;5003550;28;20046;-36
2023/01/13 12:50:35;;;;;;;7.80;0.77;;;8.80;99.90;;;;;;5006581;28;20060;-37
2023/01/13 12:53:30;;;;;;;6.72;0.85;;;8.80;99.90;;;;;;5003203;28;20050;-36
2023/01/13 12:56:26;;;;;;;7.78;1.13;;;8.90;99.90;;;;;;5006670;28;20056;-38
2023/01/13 12:58:51;;;;;;;6.75;1.25;;;8.90;99.90;;;;;;5006393;28;20554;-36
2023/01/13 13:01:35;;;;;;;8.38;1.17;;;8.90;99.90;;;;;;5004195;28;20129;-37
2023/01/13 13:04:12;;;;;;;8.40;1.00;;;8.90;99.90;;;;;;5004391;28;20048;-35
2023/01/13 13:06:42;;;;;;;6.18;1.42;;;8.90;99.90;;;;;;5002565;28;20064;-36
2023/01/13 13:09:43;;;;;;;8.30;0.95;;;9.00;99.90;;;;;;5002622;28;20049;-39
2023/01/13 13:15:23;;;;;;;5.22;0.70;;;9.00;99.90;;;;;;5006854;28;20072;-36
2023/01/13 13:17:58;;;;;;;9.45;0.80;;;9.00;99.90;;;;;;5005964;28;20104;-39
2023/01/13 13:21:02;;;;;;;8.55;1.10;;;9.00;99.90;;;;;;5001268;28;20056;-37
2023/01/13 13:23:38;;;;;;;7.53;0.52;;;9.00;99.90;;;;;;4919870;29;20575;-37
2023/01/13 13:26:19;;;;;;;9.10;0.93;;;9.00;99.90;;;;;;4922188;29;20054;-35
2023/01/13 13:29:06;;;;;;;7.00;0.93;;;9.00;99.90;;;;;;4971781;28;20526;-36
2023/01/13 13:31:43;;;;;;;8.80;2.03;;;9.10;99.90;;;;;;5007079;28;20262;-36
2023/01/13 13:34:21;;;;;;;6.32;0.65;;;9.00;99.90;;;;;;5005272;28;20041;-36
2023/01/13 13:37:20;;;;;;;7.60;0.88;;;9.00;99.90;;;;;;5005335;28;20077;-39
2023/01/13 13:48:23;;;;;;;7.60;0.73;;;8.90;99.90;;;;;;5002383;28;20073;-36
2023/01/13 13:50:55;;;;;;;8.15;1.13;;;8.80;99.90;;;;;;5004488;28;20502;-36
2023/01/13 13:53:22;;;;;;;11.77;1.15;;;8.80;99.90;;;;;;4989741;28;20505;-38
2023/01/13 13:55:54;;;;;;;7.88;0.88;;;8.80;99.90;;;;;;5004741;28;20485;-36
2023/01/13 13:58:21;;;;;;;8.68;0.90;;;8.80;99.90;;;;;;5006492;28;20033;-36
2023/01/13 14:00:48;;;;;;;4.25;0.68;;;8.80;99.90;;;;;;5005119;28;20522;-36
2023/01/13 14:03:34;;;;;;;9.55;1.23;;;8.80;99.90;;;;;;5002696;28;20189;-36
2023/01/13 14:06:04;;;;;;;12.65;1.77;;;8.90;99.90;;;;;;5006739;28;20049;-35
2023/01/13 14:08:37;;;;;;;11.88;1.45;;;8.90;99.90;;;;;;5008032;28;20034;-38
2023/01/13 14:11:25;;;;;;;8.85;0.80;;;9.00;99.90;;;;;;5004429;28;20100;-37
2023/01/13 14:14:13;;;;;;;7.68;1.00;;;8.90;99.90;;;;;;4988353;28;20593;-35